WetterOnline ( https://www.wetteronline.de )

Wetter aktuell Rostock

Aktuelles Wetter: Rostock-Warnemünde (10m)

6-stündlich | Neueste Meldungen
Ortszeit Temperatur Wetter
Mo, 06.07. 14:00 17.8° C leicht bewölkt
Mo, 06.07. 8:00 15.2° C wolkig
Mo, 06.07. 2:00 14.9° C Sprühregen
So, 05.07. 20:00 19.4° C leicht bewölkt
So, 05.07. 14:00 19.7° C bewölkt
So, 05.07. 8:00 18.1° C Sprühregen
So, 05.07. 2:00 17.2° C Sprühregen
Sa, 04.07. 20:00 17.5° C leichter Regen
Ortszeit Temperatur Wetter
Mo, 06.07. 19:10 16.5° C leicht bewölkt
Mo, 06.07. 19:00 16.8° C leicht bewölkt
Mo, 06.07. 18:50 16.8° C leicht bewölkt
Mo, 06.07. 18:40 17.1° C wolkig
Mo, 06.07. 18:30 16.3° C wolkig
Mo, 06.07. 18:20 16.3° C Sprühregen
Mo, 06.07. 18:00 17.7° C wolkenlos
Mo, 06.07. 17:30 17.5° C fast wolkenlos
Mo, 06.07. 17:00 17.3° C leicht bewölkt
Mo, 06.07. 16:30 17.4° C wolkig
Mo, 06.07. 16:00 16.2° C wolkig
Ortszeit Relative Feuchte Sichtweite
Mo, 06.07. 14:00 57% 30 km
Mo, 06.07. 8:00 67% 45 km
Mo, 06.07. 2:00 71% 15 km
So, 05.07. 20:00 70% 23 km
So, 05.07. 14:00 80% 35 km
So, 05.07. 8:00 95% 10 km
So, 05.07. 2:00 94% 16 km
Sa, 04.07. 20:00 88% 30 km
Ortszeit Relative Feuchte Sichtweite
Mo, 06.07. 19:10 67% -
Mo, 06.07. 19:00 66% 28 km
Mo, 06.07. 18:50 66% -
Mo, 06.07. 18:40 71% -
Mo, 06.07. 18:30 74% 24 km
Mo, 06.07. 18:20 74% -
Mo, 06.07. 18:00 58% 35 km
Mo, 06.07. 17:30 63% 28 km
Mo, 06.07. 17:00 63% 26 km
Mo, 06.07. 16:30 65% 30 km
Mo, 06.07. 16:00 68% 35 km
Ortszeit Niederschlagsmenge Niederschlagsart
Mo, 06.07. 14:00 0.2 l/m2 in 6 Std. Regen
Mo, 06.07. 8:00 0.1 l/m2 in 12 Std. Regen
Mo, 06.07. 2:00 0.1 l/m2 in 6 Std. Sprühregen
So, 05.07. 20:00 0.1 l/m2 in 12 Std. Regen
So, 05.07. 14:00 0.1 l/m2 in 6 Std. Regen
So, 05.07. 8:00 1 l/m2 in 12 Std. Regen
So, 05.07. 2:00 0.9 l/m2 in 6 Std. Regen
Sa, 04.07. 20:00 4 l/m2 in 12 Std. Regen
Ortszeit Niederschlagsmenge Niederschlagsart
Mo, 06.07. 19:10 keine Meldung -
Mo, 06.07. 19:00 0.1 l/m2 in 1 Std. Regen
Mo, 06.07. 18:50 keine Meldung -
Mo, 06.07. 18:40 keine Meldung -
Mo, 06.07. 18:30 0.1 l/m2 in 1 Std. Schneeregen
Mo, 06.07. 18:20 keine Meldung -
Mo, 06.07. 18:00 0.0 l/m2 in 1 Std. -
Mo, 06.07. 17:30 0.0 l/m2 in 1 Std. -
Mo, 06.07. 17:00 0.0 l/m2 in 1 Std. Regen
Mo, 06.07. 16:30 0.0 l/m2 in 1 Std. -
Mo, 06.07. 16:00 1.2 l/m2 in 1 Std. Regen
Ortszeit Stärke Spitze Richtung
km/h Bft. km/h Grad Sektor
Mo, 06.07. 14:00 22 4 59 260° W
Mo, 06.07. 8:00 17 3 35 220° SW
Mo, 06.07. 2:00 11 2 47 220° SW
So, 05.07. 20:00 35 5 57 270° W
So, 05.07. 14:00 25 4 54 230° SW
So, 05.07. 8:00 15 3 31 210° SW
So, 05.07. 2:00 17 3 39 210° SW
Sa, 04.07. 20:00 14 3 50 220° SW
Ortszeit Stärke Spitze Richtung
km/h Bft. km/h Grad Sektor
Mo, 06.07. 19:10 41 6 - 270° W
Mo, 06.07. 19:00 41 6 59 270° W
Mo, 06.07. 18:50 41 6 - 270° W
Mo, 06.07. 18:40 41 6 - 270° W
Mo, 06.07. 18:30 43 6 58 290° W
Mo, 06.07. 18:20 43 6 - 290° W
Mo, 06.07. 18:00 32 5 58 270° W
Mo, 06.07. 17:30 41 6 59 270° W
Mo, 06.07. 17:00 44 6 61 280° W
Mo, 06.07. 16:30 31 5 56 260° W
Mo, 06.07. 16:00 26 4 54 260° W
Ortszeit Untergrenze Bedeckung Gattung
total tief tief mittel hoch
Mo, 06.07. 14:00 930 m 3/8 1/8 - - -
Mo, 06.07. 8:00 1800 m 6/8 3/8 - - -
Mo, 06.07. 2:00 780 m 8/8 8/8 - - -
So, 05.07. 20:00 1500 m 4/8 4/8 - - -
So, 05.07. 14:00 570 m 7/8 7/8 - - -
So, 05.07. 8:00 180 m 8/8 8/8 - - -
So, 05.07. 2:00 360 m 8/8 8/8 - - -
Sa, 04.07. 20:00 510 m 8/8 8/8 - - -
Ortszeit Bedeckungsgrad in Achtel und Wolkenuntergrenze
Mo, 06.07. 19:10 1(1500m) 2(2100m)
Mo, 06.07. 19:00 1(1080m) 2(2100m)
Mo, 06.07. 18:50 1(1080m) 1(1440m) 2(2100m)
Mo, 06.07. 18:40 1(1080m) 3(1800m) 6(2100m)
Mo, 06.07. 18:30 1(1050m) 6(2100m) 6(2700m)
Mo, 06.07. 18:20 1(1050m) 6(2100m) 6(2700m)
Mo, 06.07. 18:00 keine Wolken
Mo, 06.07. 17:30 1(6000m)
Mo, 06.07. 17:00 2(960m) 3(1350m)
Mo, 06.07. 16:30 1(2100m) 7(6300m) 7(6900m)
Mo, 06.07. 16:00 2(1110m) 7(5100m) 8(6000m)
Ortszeit Luftdruck NN (hPa) Tendenz (hPa in 3 Std.)
Mo, 06.07. 14:00 1007 + 1,7
Mo, 06.07. 8:00 1005 + 0,6
Mo, 06.07. 2:00 1006 - 0,3
So, 05.07. 20:00 1006 + 1,0
So, 05.07. 14:00 1005 + 0,5
So, 05.07. 8:00 1006 - 1,1
So, 05.07. 2:00 1009 - 1,0
Sa, 04.07. 20:00 1010 - 0,7
Ortszeit Luftdruck NN (hPa) Tendenz (hPa in 3 Std.)
Mo, 06.07. 19:10 1010 keine Meldung
Mo, 06.07. 19:00 1010 + 1,6
Mo, 06.07. 18:50 1010 keine Meldung
Mo, 06.07. 18:40 1010 keine Meldung
Mo, 06.07. 18:30 1010 + 1,5
Mo, 06.07. 18:20 1010 keine Meldung
Mo, 06.07. 18:00 1009 + 1,2
Mo, 06.07. 17:30 1009 + 1,6
Mo, 06.07. 17:00 1009 + 1,6
Mo, 06.07. 16:30 1009 + 1,5
Mo, 06.07. 16:00 1008 + 1,7
Ortszeit Schneehöhe (cm)
Mo, 06.07. 14:00 -
Mo, 06.07. 8:00 -
Mo, 06.07. 2:00 -
So, 05.07. 20:00 -
So, 05.07. 14:00 -
So, 05.07. 8:00 -
So, 05.07. 2:00 -
Sa, 04.07. 20:00 -
Ortszeit Schneehöhe (cm)
Mo, 06.07. 19:10 -
Mo, 06.07. 19:00 -
Mo, 06.07. 18:50 -
Mo, 06.07. 18:40 -
Mo, 06.07. 18:30 -
Mo, 06.07. 18:20 -
Mo, 06.07. 18:00 -
Mo, 06.07. 17:30 -
Mo, 06.07. 17:00 -
Mo, 06.07. 16:30 -
Mo, 06.07. 16:00 -
Link zu dieser Seite / Seite empfehlen

Das Wetter in ...